createdAt,value
2022-10-27T00:01:30.010Z,7.90
2022-10-27T00:03:58.626Z,7.60
2022-10-27T00:06:27.132Z,8.10
2022-10-27T00:08:55.760Z,7.90
2022-10-27T00:11:24.526Z,6.90
2022-10-27T00:13:53.088Z,7.90
2022-10-27T00:16:22.580Z,6.90
2022-10-27T00:18:51.174Z,8.10
2022-10-27T00:21:21.638Z,8.10
2022-10-27T00:23:51.603Z,7.70
2022-10-27T00:26:22.046Z,7.80
2022-10-27T00:28:50.685Z,7.80
2022-10-27T00:31:22.758Z,7.80
2022-10-27T00:33:51.798Z,7.90
2022-10-27T00:36:23.445Z,8.00
2022-10-27T00:39:00.171Z,7.80
2022-10-27T00:41:38.142Z,7.80
2022-10-27T00:44:38.390Z,7.40
2022-10-27T00:47:33.968Z,8.50
2022-10-27T00:50:13.256Z,8.50
2022-10-27T00:52:53.837Z,7.70
2022-10-27T00:55:35.287Z,7.60
2022-10-27T00:58:08.517Z,8.00
2022-10-27T01:00:40.395Z,7.60
2022-10-27T01:03:11.749Z,6.80
2022-10-27T01:05:41.500Z,7.60
2022-10-27T01:08:10.259Z,7.20
2022-10-27T01:10:38.820Z,7.20
2022-10-27T01:13:07.746Z,7.20
2022-10-27T01:15:55.590Z,8.20
2022-10-27T01:18:32.731Z,7.80
2022-10-27T01:21:50.751Z,7.20
2022-10-27T01:24:53.272Z,7.60
2022-10-27T01:27:42.806Z,7.90
2022-10-27T01:30:19.835Z,7.80
2022-10-27T01:33:15.735Z,8.30
2022-10-27T01:36:02.084Z,8.10
2022-10-27T01:38:53.024Z,8.70
2022-10-27T01:41:31.313Z,8.00
2022-10-27T01:44:06.768Z,9.00
2022-10-27T01:46:36.707Z,9.30
2022-10-27T01:49:06.299Z,8.10
2022-10-27T01:51:34.840Z,7.90
2022-10-27T01:54:05.708Z,8.40
2022-10-27T01:56:59.176Z,9.50
2022-10-27T01:59:39.668Z,10.30
2022-10-27T02:02:24.327Z,9.10
2022-10-27T02:05:26.222Z,9.10
2022-10-27T02:08:12.979Z,8.80
2022-10-27T02:11:06.837Z,8.90
2022-10-27T02:13:40.266Z,9.40
2022-10-27T02:16:21.002Z,9.30
2022-10-27T02:19:01.339Z,9.20
2022-10-27T02:21:33.686Z,8.90
2022-10-27T02:24:03.033Z,8.90
2022-10-27T02:26:51.775Z,8.60
2022-10-27T02:29:27.751Z,8.40
2022-10-27T02:32:00.793Z,8.40
2022-10-27T02:34:31.706Z,7.70
2022-10-27T02:37:00.670Z,8.50
2022-10-27T02:39:29.309Z,9.40
2022-10-27T02:41:57.911Z,8.70
2022-10-27T02:44:26.352Z,9.00
2022-10-27T02:46:55.059Z,8.90
2022-10-27T02:49:23.615Z,8.50
2022-10-27T02:51:52.254Z,8.30
2022-10-27T02:54:20.802Z,8.30
2022-10-27T02:56:49.302Z,7.90
2022-10-27T02:59:17.806Z,9.20
2022-10-27T03:01:46.944Z,8.30
2022-10-27T03:04:15.746Z,9.50
2022-10-27T03:06:44.326Z,8.10
2022-10-27T03:09:12.911Z,9.00
2022-10-27T03:11:44.023Z,8.30
2022-10-27T03:14:14.806Z,8.00
2022-10-27T03:16:43.434Z,8.20
2022-10-27T03:19:12.055Z,9.20
2022-10-27T03:21:40.634Z,8.90
2022-10-27T03:24:09.244Z,9.30
2022-10-27T03:26:37.718Z,9.80
2022-10-27T03:29:09.135Z,9.30
2022-10-27T03:31:37.738Z,8.90
2022-10-27T03:34:06.401Z,12.10
2022-10-27T03:36:35.035Z,9.10
2022-10-27T03:39:04.017Z,9.30
2022-10-27T03:41:32.531Z,9.20
2022-10-27T03:44:01.193Z,9.80
2022-10-27T03:46:29.685Z,9.20
2022-10-27T03:48:58.300Z,9.10
2022-10-27T03:51:26.809Z,12.60
2022-10-27T03:53:57.302Z,32.30
2022-10-27T03:56:25.906Z,12.40
2022-10-27T03:58:54.794Z,11.10
2022-10-27T04:01:23.867Z,10.10
2022-10-27T04:03:52.524Z,10.50
2022-10-27T04:06:21.057Z,10.20
2022-10-27T04:08:49.693Z,10.20
2022-10-27T04:11:18.258Z,10.20
2022-10-27T04:13:47.492Z,9.60
2022-10-27T04:16:16.073Z,9.80
2022-10-27T04:18:44.684Z,11.20
2022-10-27T04:21:13.301Z,10.40
2022-10-27T04:23:42.094Z,9.90
2022-10-27T04:26:10.678Z,10.10
2022-10-27T04:28:39.266Z,10.40
2022-10-27T04:31:07.935Z,10.10
2022-10-27T04:33:36.522Z,10.40
2022-10-27T04:36:06.886Z,11.20
2022-10-27T04:38:37.352Z,10.60
2022-10-27T04:41:06.057Z,11.70
2022-10-27T04:43:34.629Z,13.40
2022-10-27T04:46:03.219Z,13.10
2022-10-27T04:48:31.796Z,12.00
2022-10-27T04:51:00.435Z,10.20
2022-10-27T04:53:29.033Z,10.90
2022-10-27T04:55:57.561Z,9.40
2022-10-27T04:58:26.184Z,9.90
2022-10-27T05:00:54.860Z,9.30
2022-10-27T05:03:23.342Z,9.20
2022-10-27T05:05:51.811Z,10.20
2022-10-27T05:08:20.487Z,11.50
2022-10-27T05:10:49.051Z,10.70
2022-10-27T05:13:17.635Z,10.70
2022-10-27T05:15:46.156Z,13.70
2022-10-27T05:18:14.761Z,13.30
2022-10-27T05:20:43.379Z,14.10
2022-10-27T05:23:12.188Z,14.50
2022-10-27T05:25:40.859Z,13.90
2022-10-27T05:28:11.677Z,13.50
2022-10-27T05:30:40.369Z,14.00
2022-10-27T05:33:09.006Z,14.40
2022-10-27T05:35:37.588Z,13.90
2022-10-27T05:38:06.125Z,14.80
2022-10-27T05:40:34.732Z,14.40
2022-10-27T05:43:04.321Z,13.90
2022-10-27T05:45:32.927Z,14.40
2022-10-27T05:48:07.304Z,13.90
2022-10-27T05:50:36.423Z,13.00
2022-10-27T05:53:05.260Z,21.50
2022-10-27T05:55:35.408Z,12.80
2022-10-27T05:58:06.634Z,13.90
2022-10-27T06:00:38.726Z,14.10
2022-10-27T06:03:14.256Z,15.30
2022-10-27T06:05:42.954Z,14.50
2022-10-27T06:08:11.584Z,15.80
2022-10-27T06:10:40.200Z,14.80
2022-10-27T06:13:13.838Z,12.40
2022-10-27T06:18:16.099Z,13.10
2022-10-27T06:20:45.111Z,12.80
2022-10-27T06:23:14.211Z,10.40
2022-10-27T06:25:42.691Z,11.30
2022-10-27T06:28:11.262Z,13.00
2022-10-27T06:30:39.849Z,14.10
2022-10-27T06:33:08.454Z,11.70
2022-10-27T06:35:36.948Z,11.60
2022-10-27T06:38:05.639Z,12.30
2022-10-27T06:40:34.366Z,13.20
2022-10-27T06:43:10.380Z,13.50
2022-10-27T06:45:41.386Z,13.10
2022-10-27T06:48:11.100Z,12.70
2022-10-27T06:50:39.698Z,12.80
2022-10-27T06:53:08.287Z,13.00
2022-10-27T06:55:36.884Z,11.90
2022-10-27T06:58:05.471Z,11.70
2022-10-27T07:00:34.213Z,11.20
2022-10-27T07:03:12.374Z,12.10
2022-10-27T07:05:40.965Z,13.70
2022-10-27T07:08:09.482Z,12.80
2022-10-27T07:10:38.025Z,12.60
2022-10-27T07:13:06.651Z,12.90
2022-10-27T07:15:37.195Z,12.80
2022-10-27T07:18:08.348Z,10.80
2022-10-27T07:20:40.094Z,11.60
2022-10-27T07:23:11.178Z,12.80
2022-10-27T07:25:39.801Z,12.00
2022-10-27T07:28:08.659Z,11.50
2022-10-27T07:30:40.705Z,11.40
2022-10-27T07:33:09.284Z,10.90
2022-10-27T07:35:38.699Z,10.50
2022-10-27T07:38:08.121Z,11.40
2022-10-27T07:40:36.717Z,9.90
2022-10-27T07:43:08.532Z,10.00
2022-10-27T07:45:41.624Z,11.00
2022-10-27T07:48:16.053Z,10.90
2022-10-27T07:50:45.610Z,11.50
2022-10-27T07:53:17.997Z,9.90
2022-10-27T07:55:46.545Z,9.50
2022-10-27T07:58:17.553Z,9.20
2022-10-27T08:00:48.550Z,8.60
2022-10-27T08:03:23.492Z,9.40
2022-10-27T08:05:53.032Z,9.00
2022-10-27T08:08:22.147Z,8.30
2022-10-27T08:10:50.818Z,7.20
2022-10-27T08:13:19.382Z,7.80
2022-10-27T08:15:48.408Z,9.40
2022-10-27T08:18:17.501Z,8.30
2022-10-27T08:20:47.900Z,9.10
2022-10-27T08:23:20.527Z,8.40
2022-10-27T08:25:49.196Z,8.20
2022-10-27T08:28:17.951Z,8.10
2022-10-27T08:30:52.178Z,9.20
2022-10-27T08:33:23.347Z,8.30
2022-10-27T08:35:52.199Z,8.10
2022-10-27T08:38:21.655Z,7.50
2022-10-27T08:41:10.477Z,8.00
2022-10-27T08:44:15.970Z,7.80
2022-10-27T08:46:53.180Z,7.20
2022-10-27T08:49:30.278Z,7.60
2022-10-27T08:52:34.093Z,7.10
2022-10-27T08:55:12.935Z,7.70
2022-10-27T08:58:06.995Z,8.00
2022-10-27T09:00:50.429Z,7.10
2022-10-27T09:04:01.933Z,7.20
2022-10-27T09:06:56.407Z,7.40
2022-10-27T09:09:34.702Z,7.50
2022-10-27T09:12:21.589Z,6.70
2022-10-27T09:15:37.348Z,7.30
2022-10-27T09:18:46.996Z,7.30
2022-10-27T09:21:27.064Z,7.70
2022-10-27T09:24:04.608Z,6.30
2022-10-27T09:26:34.303Z,7.30
2022-10-27T09:29:18.448Z,6.40
2022-10-27T09:32:24.323Z,7.00
2022-10-27T09:35:09.966Z,7.50
2022-10-27T09:37:40.974Z,6.90
2022-10-27T09:40:18.628Z,6.60
2022-10-27T09:42:51.341Z,7.30
2022-10-27T09:47:55.313Z,6.80
2022-10-27T09:50:45.164Z,7.10
2022-10-27T09:53:43.476Z,6.60
2022-10-27T09:56:20.289Z,7.50
2022-10-27T09:59:19.231Z,6.10
2022-10-27T10:01:55.504Z,6.40
2022-10-27T10:04:36.864Z,6.70
2022-10-27T10:07:07.659Z,6.50
2022-10-27T10:09:41.738Z,6.50
2022-10-27T10:12:26.230Z,6.00
2022-10-27T10:15:13.026Z,6.00
2022-10-27T10:17:51.446Z,5.70
2022-10-27T10:23:32.265Z,5.80
2022-10-27T10:26:06.105Z,5.80
2022-10-27T10:28:39.398Z,6.00
2022-10-27T10:31:12.500Z,5.30
2022-10-27T10:33:47.694Z,5.30
2022-10-27T10:36:41.333Z,4.60
2022-10-27T10:39:36.301Z,5.20
2022-10-27T10:42:11.059Z,4.30
2022-10-27T10:44:40.306Z,3.40
2022-10-27T10:47:32.348Z,3.10
2022-10-27T10:50:03.216Z,3.30
2022-10-27T10:52:38.760Z,3.10
2022-10-27T10:55:17.906Z,2.90
2022-10-27T10:57:48.416Z,2.90
2022-10-27T11:00:19.903Z,3.10
2022-10-27T11:03:01.445Z,3.20
2022-10-27T11:05:36.314Z,3.30
2022-10-27T11:08:06.747Z,3.20
2022-10-27T11:10:43.260Z,3.30
2022-10-27T11:13:31.024Z,3.40
2022-10-27T11:16:04.347Z,3.80
2022-10-27T11:18:56.093Z,4.30
2022-10-27T11:22:04.398Z,4.90
2022-10-27T11:24:53.803Z,4.10
2022-10-27T11:27:40.383Z,4.50
2022-10-27T11:30:26.213Z,4.10
2022-10-27T11:33:35.456Z,4.00
2022-10-27T11:36:39.680Z,4.60
2022-10-27T11:39:16.078Z,4.50
2022-10-27T11:41:52.136Z,4.10
2022-10-27T11:44:52.739Z,4.40
2022-10-27T11:47:37.241Z,4.40
2022-10-27T11:50:10.858Z,4.00
2022-10-27T11:52:49.109Z,4.60
2022-10-27T11:55:25.330Z,4.20
2022-10-27T11:58:29.566Z,4.00
2022-10-27T12:01:07.569Z,4.30
2022-10-27T12:03:54.675Z,4.50
2022-10-27T12:06:38.852Z,4.10
2022-10-27T12:09:16.394Z,4.40
2022-10-27T12:12:07.771Z,4.40
2022-10-27T12:14:53.759Z,4.10
2022-10-27T12:17:28.004Z,3.90
2022-10-27T12:23:07.846Z,4.30
2022-10-27T12:25:56.310Z,4.20
2022-10-27T12:28:27.635Z,4.60
2022-10-27T12:31:02.105Z,3.70
2022-10-27T12:33:57.278Z,4.00
2022-10-27T12:36:35.004Z,4.20
2022-10-27T12:39:39.535Z,5.10
2022-10-27T12:42:36.263Z,4.30
2022-10-27T12:45:07.836Z,4.60
2022-10-27T12:47:39.149Z,4.40
2022-10-27T12:50:43.232Z,4.50
2022-10-27T12:53:36.798Z,9.30
2022-10-27T12:56:23.920Z,4.40
2022-10-27T12:59:19.596Z,4.60
2022-10-27T13:02:00.977Z,4.60
2022-10-27T13:05:20.218Z,4.90
2022-10-27T13:08:12.622Z,4.70
2022-10-27T13:11:15.042Z,4.80
2022-10-27T13:14:08.133Z,4.90
2022-10-27T13:19:22.762Z,4.80
2022-10-27T13:22:34.761Z,4.50
2022-10-27T13:25:12.453Z,4.00
2022-10-27T13:28:04.871Z,3.90
2022-10-27T13:30:38.874Z,4.40
2022-10-27T13:33:40.207Z,4.60
2022-10-27T13:36:23.474Z,4.20
2022-10-27T13:39:14.833Z,4.70
2022-10-27T13:42:01.839Z,4.50
2022-10-27T13:44:32.117Z,4.00
2022-10-27T13:47:03.648Z,5.10
2022-10-27T13:49:41.309Z,4.70
2022-10-27T13:52:16.165Z,5.30
2022-10-27T13:55:23.405Z,5.00
2022-10-27T13:58:20.451Z,5.30
2022-10-27T14:01:19.048Z,5.80
2022-10-27T14:04:24.594Z,6.20
2022-10-27T14:07:03.322Z,6.00
2022-10-27T14:09:46.546Z,5.70
2022-10-27T14:12:32.853Z,6.00
2022-10-27T14:15:10.682Z,5.60
2022-10-27T14:17:43.243Z,5.70
2022-10-27T14:20:44.668Z,6.90
2022-10-27T14:23:15.597Z,6.00
2022-10-27T14:25:44.408Z,6.00
2022-10-27T14:28:23.115Z,5.30
2022-10-27T14:31:24.155Z,6.60
2022-10-27T14:33:54.651Z,7.80
2022-10-27T14:36:33.924Z,9.20
2022-10-27T14:39:22.862Z,9.20
2022-10-27T14:41:54.514Z,10.70
2022-10-27T14:44:33.503Z,10.30
2022-10-27T14:47:11.640Z,19.30
2022-10-27T14:49:49.606Z,11.70
2022-10-27T14:52:28.768Z,11.70
2022-10-27T14:54:57.653Z,10.90
2022-10-27T14:57:37.705Z,7.00
2022-10-27T15:00:29.147Z,6.60
2022-10-27T15:03:09.600Z,6.50
2022-10-27T15:05:47.707Z,9.30
2022-10-27T15:08:20.615Z,8.60
2022-10-27T15:10:53.441Z,8.50
2022-10-27T15:13:26.438Z,9.40
2022-10-27T15:18:39.267Z,7.60
2022-10-27T15:21:21.697Z,8.40
2022-10-27T15:24:04.877Z,8.00
2022-10-27T15:26:34.670Z,9.00
2022-10-27T15:31:42.331Z,10.10
2022-10-27T15:37:30.725Z,9.10
2022-10-27T15:40:41.255Z,9.10
2022-10-27T15:43:30.848Z,8.60
2022-10-27T15:46:31.969Z,9.00
2022-10-27T15:49:04.021Z,9.30
2022-10-27T15:51:55.532Z,9.60
2022-10-27T15:54:36.692Z,10.10
2022-10-27T15:57:26.580Z,11.70
2022-10-27T16:00:13.472Z,13.60
2022-10-27T16:02:58.486Z,13.70
2022-10-27T16:05:30.426Z,11.70
2022-10-27T16:08:18.964Z,10.70
2022-10-27T16:10:52.713Z,10.80
2022-10-27T16:13:22.919Z,10.20
2022-10-27T16:15:51.796Z,10.00
2022-10-27T16:18:25.001Z,10.40
2022-10-27T16:20:53.990Z,10.50
2022-10-27T16:23:22.635Z,10.90
2022-10-27T16:25:51.411Z,11.30
2022-10-27T16:28:24.556Z,11.60
2022-10-27T16:30:53.657Z,11.50
2022-10-27T16:33:24.093Z,12.00
2022-10-27T16:35:52.823Z,13.30
2022-10-27T16:38:21.349Z,16.50
2022-10-27T16:40:50.409Z,13.10
2022-10-27T16:43:35.921Z,13.30
2022-10-27T16:46:05.023Z,14.90
2022-10-27T16:48:36.988Z,14.30
2022-10-27T16:51:07.443Z,15.60
2022-10-27T16:53:36.185Z,17.90
2022-10-27T16:56:07.288Z,22.10
2022-10-27T16:58:41.863Z,16.40
2022-10-27T17:01:20.512Z,19.60
2022-10-27T17:03:49.636Z,27.20
2022-10-27T17:06:21.955Z,19.10
2022-10-27T17:08:51.013Z,20.00
2022-10-27T17:11:19.603Z,20.60
2022-10-27T17:13:48.151Z,18.90
2022-10-27T17:16:19.061Z,17.50
2022-10-27T17:18:47.985Z,19.40
2022-10-27T17:21:16.704Z,20.40
2022-10-27T17:23:45.940Z,23.30
2022-10-27T17:26:15.690Z,19.70
2022-10-27T17:28:48.608Z,18.30
2022-10-27T17:31:22.466Z,18.80
2022-10-27T17:33:56.364Z,21.50
2022-10-27T17:36:26.364Z,19.20
2022-10-27T17:38:56.096Z,16.70
2022-10-27T17:41:24.939Z,16.00
2022-10-27T17:43:56.550Z,14.70
2022-10-27T17:46:25.302Z,14.20
2022-10-27T17:51:33.980Z,13.10
2022-10-27T17:54:04.349Z,14.80
2022-10-27T17:56:36.290Z,13.50
2022-10-27T17:59:14.255Z,12.80
2022-10-27T18:01:43.623Z,13.70
2022-10-27T18:04:12.900Z,14.60
2022-10-27T18:06:44.631Z,14.20
2022-10-27T18:09:13.868Z,13.70
2022-10-27T18:11:42.807Z,13.40
2022-10-27T18:14:19.067Z,12.80
2022-10-27T18:16:47.763Z,13.70
2022-10-27T18:19:17.128Z,12.70
2022-10-27T18:21:47.828Z,13.20
2022-10-27T18:24:17.629Z,13.30
2022-10-27T18:26:48.520Z,13.40
2022-10-27T18:29:19.663Z,14.00
2022-10-27T18:31:50.908Z,14.10
2022-10-27T18:34:19.542Z,13.20
2022-10-27T18:36:48.153Z,13.20
2022-10-27T18:39:19.675Z,14.10
2022-10-27T18:41:49.481Z,13.40
2022-10-27T18:44:19.979Z,23.10
2022-10-27T18:46:48.611Z,13.70
2022-10-27T18:49:25.455Z,13.50
2022-10-27T18:51:59.501Z,14.90
2022-10-27T18:54:28.223Z,17.00
2022-10-27T18:56:57.497Z,15.60
2022-10-27T18:59:26.115Z,16.00
2022-10-27T19:01:54.897Z,17.60
2022-10-27T19:04:23.505Z,16.40
2022-10-27T19:06:53.381Z,14.90
2022-10-27T19:09:22.134Z,14.10
2022-10-27T19:11:50.839Z,14.80
2022-10-27T19:14:19.720Z,16.00
2022-10-27T19:16:51.705Z,14.50
2022-10-27T19:19:24.964Z,14.90
2022-10-27T19:21:53.579Z,14.50
2022-10-27T19:24:22.165Z,14.50
2022-10-27T19:26:50.772Z,14.60
2022-10-27T19:29:19.369Z,15.10
2022-10-27T19:31:47.967Z,15.20
2022-10-27T19:34:16.497Z,15.80
2022-10-27T19:36:45.130Z,15.80
2022-10-27T19:39:14.423Z,15.90
2022-10-27T19:41:43.055Z,15.40
2022-10-27T19:44:12.637Z,17.60
2022-10-27T19:46:41.295Z,15.10
2022-10-27T19:49:15.796Z,14.60
2022-10-27T19:51:44.812Z,16.30
2022-10-27T19:54:17.833Z,15.90
2022-10-27T19:56:48.639Z,17.20
2022-10-27T19:59:26.448Z,18.90
2022-10-27T20:01:56.788Z,19.10
2022-10-27T20:04:25.466Z,19.00
2022-10-27T20:06:54.067Z,18.00
2022-10-27T20:09:23.590Z,17.90
2022-10-27T20:11:52.342Z,18.10
2022-10-27T20:14:22.460Z,18.00
2022-10-27T20:16:52.961Z,17.40
2022-10-27T20:19:22.580Z,18.60
2022-10-27T20:21:51.445Z,18.50
2022-10-27T20:24:22.402Z,17.70
2022-10-27T20:29:24.088Z,22.00
2022-10-27T20:31:55.757Z,23.90
2022-10-27T20:34:26.036Z,22.00
2022-10-27T20:36:55.134Z,21.80
2022-10-27T20:39:23.648Z,22.50
2022-10-27T20:41:52.284Z,21.60
2022-10-27T20:44:20.871Z,17.80
2022-10-27T20:46:49.473Z,19.30
2022-10-27T20:49:17.932Z,18.10
2022-10-27T20:51:46.468Z,18.00
2022-10-27T20:54:15.175Z,19.00
2022-10-27T20:56:43.677Z,20.30
2022-10-27T20:59:12.216Z,19.20
2022-10-27T21:01:43.360Z,19.90
2022-10-27T21:04:19.654Z,19.50
2022-10-27T21:06:50.828Z,19.50
2022-10-27T21:09:21.428Z,18.80
2022-10-27T21:11:50.087Z,18.30
2022-10-27T21:14:20.448Z,18.30
2022-10-27T21:16:51.998Z,18.80
2022-10-27T21:19:20.969Z,17.60
2022-10-27T21:21:49.739Z,19.20
2022-10-27T21:24:18.379Z,19.60
2022-10-27T21:26:47.424Z,19.10
2022-10-27T21:29:15.975Z,19.70
2022-10-27T21:31:46.777Z,19.70
2022-10-27T21:34:15.717Z,19.20
2022-10-27T21:36:44.259Z,19.90
2022-10-27T21:39:14.571Z,19.90
2022-10-27T21:41:43.094Z,20.20
2022-10-27T21:44:11.837Z,18.80
2022-10-27T21:46:40.449Z,20.20
2022-10-27T21:49:11.629Z,20.20
2022-10-27T21:51:40.509Z,20.60
2022-10-27T21:54:10.006Z,19.50
2022-10-27T21:56:42.522Z,20.30
2022-10-27T21:59:11.850Z,20.00
2022-10-27T22:01:40.448Z,19.40
2022-10-27T22:04:09.136Z,19.30
2022-10-27T22:06:37.651Z,18.60
2022-10-27T22:09:06.372Z,18.30
2022-10-27T22:11:37.095Z,19.40
2022-10-27T22:14:05.812Z,18.60
2022-10-27T22:16:35.561Z,18.50
2022-10-27T22:19:06.449Z,20.60
2022-10-27T22:21:38.638Z,20.60
2022-10-27T22:24:08.221Z,20.30
2022-10-27T22:26:41.067Z,21.80
2022-10-27T22:29:10.578Z,19.20
2022-10-27T22:31:39.165Z,19.70
2022-10-27T22:34:09.760Z,20.20
2022-10-27T22:36:38.610Z,20.20
2022-10-27T22:39:07.169Z,20.20
2022-10-27T22:41:36.166Z,20.80
2022-10-27T22:44:06.447Z,22.20
2022-10-27T22:46:35.313Z,20.20
2022-10-27T22:49:04.370Z,20.70
2022-10-27T22:51:33.552Z,21.70
2022-10-27T22:54:02.882Z,22.10
2022-10-27T22:56:33.985Z,21.10
2022-10-27T22:59:08.561Z,22.70
2022-10-27T23:01:40.010Z,22.80
2022-10-27T23:04:13.470Z,22.00
2022-10-27T23:06:43.492Z,21.70
2022-10-27T23:09:18.705Z,22.10
2022-10-27T23:11:47.467Z,21.00
2022-10-27T23:14:18.062Z,22.10
2022-10-27T23:16:46.773Z,21.10
2022-10-27T23:19:15.453Z,22.10
2022-10-27T23:21:43.985Z,20.70
2022-10-27T23:24:12.576Z,19.30
2022-10-27T23:26:41.133Z,19.10
2022-10-27T23:29:12.937Z,20.10
2022-10-27T23:31:41.582Z,21.90
2022-10-27T23:34:11.900Z,22.90
2022-10-27T23:36:41.654Z,21.60
2022-10-27T23:39:10.434Z,20.70
2022-10-27T23:41:38.998Z,20.90
2022-10-27T23:44:07.587Z,20.20
2022-10-27T23:46:36.211Z,20.60
2022-10-27T23:49:04.781Z,21.50
2022-10-27T23:51:34.068Z,20.90
2022-10-27T23:54:02.686Z,19.60
2022-10-27T23:56:32.162Z,19.60
2022-10-27T23:59:01.885Z,19.00
